sensor_id;sensor_type;location;lat;lon;timestamp;P1;durP1;ratioP1;P2;durP2;ratioP2
59054;SDS011;44845;51.444;7.460;2023-04-30T00:01:57;8.65;;;5.38;;
59054;SDS011;44845;51.444;7.460;2023-04-30T00:04:23;8.30;;;5.90;;
59054;SDS011;44845;51.444;7.460;2023-04-30T00:06:48;7.00;;;5.88;;
59054;SDS011;44845;51.444;7.460;2023-04-30T00:09:14;8.27;;;5.85;;
59054;SDS011;44845;51.444;7.460;2023-04-30T00:11:39;7.38;;;5.85;;
59054;SDS011;44845;51.444;7.460;2023-04-30T00:14:05;8.52;;;5.38;;
59054;SDS011;44845;51.444;7.460;2023-04-30T00:16:30;6.78;;;5.80;;
59054;SDS011;44845;51.444;7.460;2023-04-30T00:18:56;7.80;;;5.47;;
59054;SDS011;44845;51.444;7.460;2023-04-30T00:21:21;8.32;;;5.75;;
59054;SDS011;44845;51.444;7.460;2023-04-30T00:23:46;9.45;;;5.68;;
59054;SDS011;44845;51.444;7.460;2023-04-30T00:26:12;11.05;;;5.82;;
59054;SDS011;44845;51.444;7.460;2023-04-30T00:28:37;10.80;;;5.80;;
59054;SDS011;44845;51.444;7.460;2023-04-30T00:31:02;8.90;;;6.15;;
59054;SDS011;44845;51.444;7.460;2023-04-30T00:33:30;9.55;;;6.10;;
59054;SDS011;44845;51.444;7.460;2023-04-30T00:35:56;8.02;;;5.35;;
59054;SDS011;44845;51.444;7.460;2023-04-30T00:38:21;8.75;;;5.82;;
59054;SDS011;44845;51.444;7.460;2023-04-30T00:40:47;10.15;;;5.45;;
59054;SDS011;44845;51.444;7.460;2023-04-30T00:43:13;6.18;;;4.97;;
59054;SDS011;44845;51.444;7.460;2023-04-30T00:45:38;10.13;;;5.88;;
59054;SDS011;44845;51.444;7.460;2023-04-30T00:48:04;8.32;;;5.65;;
59054;SDS011;44845;51.444;7.460;2023-04-30T00:50:29;10.15;;;5.78;;
59054;SDS011;44845;51.444;7.460;2023-04-30T00:52:55;9.77;;;5.65;;
59054;SDS011;44845;51.444;7.460;2023-04-30T00:55:21;12.73;;;5.80;;
59054;SDS011;44845;51.444;7.460;2023-04-30T00:57:46;8.70;;;5.85;;
59054;SDS011;44845;51.444;7.460;2023-04-30T01:00:12;8.35;;;5.75;;
59054;SDS011;44845;51.444;7.460;2023-04-30T01:02:38;7.28;;;5.63;;
59054;SDS011;44845;51.444;7.460;2023-04-30T01:05:05;7.93;;;5.30;;
59054;SDS011;44845;51.444;7.460;2023-04-30T01:07:31;8.32;;;5.85;;
59054;SDS011;44845;51.444;7.460;2023-04-30T01:09:58;8.90;;;5.95;;
59054;SDS011;44845;51.444;7.460;2023-04-30T01:17:46;7.97;;;5.85;;
59054;SDS011;44845;51.444;7.460;2023-04-30T01:20:16;8.07;;;5.25;;
59054;SDS011;44845;51.444;7.460;2023-04-30T01:22:54;8.80;;;5.75;;
59054;SDS011;44845;51.444;7.460;2023-04-30T01:25:34;8.85;;;6.65;;
59054;SDS011;44845;51.444;7.460;2023-04-30T01:28:14;7.18;;;5.80;;
59054;SDS011;44845;51.444;7.460;2023-04-30T01:30:41;8.95;;;5.85;;
59054;SDS011;44845;51.444;7.460;2023-04-30T01:33:08;7.47;;;5.88;;
59054;SDS011;44845;51.444;7.460;2023-04-30T01:35:49;9.68;;;6.10;;
59054;SDS011;44845;51.444;7.460;2023-04-30T01:41:34;10.40;;;6.40;;
59054;SDS011;44845;51.444;7.460;2023-04-30T01:46:56;8.85;;;6.55;;
59054;SDS011;44845;51.444;7.460;2023-04-30T01:52:18;12.00;;;6.60;;
59054;SDS011;44845;51.444;7.460;2023-04-30T01:54:52;10.43;;;6.43;;
59054;SDS011;44845;51.444;7.460;2023-04-30T01:57:27;13.25;;;6.72;;
59054;SDS011;44845;51.444;7.460;2023-04-30T01:59:57;10.50;;;6.60;;
59054;SDS011;44845;51.444;7.460;2023-04-30T02:02:22;10.15;;;6.22;;
59054;SDS011;44845;51.444;7.460;2023-04-30T02:04:48;10.85;;;6.68;;
59054;SDS011;44845;51.444;7.460;2023-04-30T02:07:16;9.50;;;6.10;;
59054;SDS011;44845;51.444;7.460;2023-04-30T02:09:53;10.07;;;6.95;;
59054;SDS011;44845;51.444;7.460;2023-04-30T02:12:18;8.68;;;6.63;;
59054;SDS011;44845;51.444;7.460;2023-04-30T02:14:44;11.57;;;7.00;;
59054;SDS011;44845;51.444;7.460;2023-04-30T02:17:09;12.05;;;7.30;;
59054;SDS011;44845;51.444;7.460;2023-04-30T02:19:35;7.88;;;6.55;;
59054;SDS011;44845;51.444;7.460;2023-04-30T02:22:00;11.35;;;6.03;;
59054;SDS011;44845;51.444;7.460;2023-04-30T02:24:25;9.23;;;6.72;;
59054;SDS011;44845;51.444;7.460;2023-04-30T02:26:51;10.45;;;6.53;;
59054;SDS011;44845;51.444;7.460;2023-04-30T02:29:16;8.30;;;6.15;;
59054;SDS011;44845;51.444;7.460;2023-04-30T02:31:41;10.20;;;6.63;;
59054;SDS011;44845;51.444;7.460;2023-04-30T02:34:07;8.05;;;6.25;;
59054;SDS011;44845;51.444;7.460;2023-04-30T02:36:32;9.80;;;6.53;;
59054;SDS011;44845;51.444;7.460;2023-04-30T02:39:00;16.17;;;6.35;;
59054;SDS011;44845;51.444;7.460;2023-04-30T02:41:25;10.38;;;6.75;;
59054;SDS011;44845;51.444;7.460;2023-04-30T02:43:51;10.00;;;6.53;;
59054;SDS011;44845;51.444;7.460;2023-04-30T02:46:16;10.70;;;6.88;;
59054;SDS011;44845;51.444;7.460;2023-04-30T02:48:43;10.93;;;7.10;;
59054;SDS011;44845;51.444;7.460;2023-04-30T02:51:08;10.63;;;6.75;;
59054;SDS011;44845;51.444;7.460;2023-04-30T02:53:33;12.25;;;6.85;;
59054;SDS011;44845;51.444;7.460;2023-04-30T02:55:59;11.48;;;7.07;;
59054;SDS011;44845;51.444;7.460;2023-04-30T02:58:24;12.82;;;7.25;;
59054;SDS011;44845;51.444;7.460;2023-04-30T03:00:50;12.70;;;7.30;;
59054;SDS011;44845;51.444;7.460;2023-04-30T03:03:15;13.00;;;7.45;;
59054;SDS011;44845;51.444;7.460;2023-04-30T03:05:41;8.25;;;6.97;;
59054;SDS011;44845;51.444;7.460;2023-04-30T03:08:06;9.57;;;6.55;;
59054;SDS011;44845;51.444;7.460;2023-04-30T03:10:31;13.10;;;7.10;;
59054;SDS011;44845;51.444;7.460;2023-04-30T03:12:57;10.45;;;7.68;;
59054;SDS011;44845;51.444;7.460;2023-04-30T03:15:22;10.07;;;7.38;;
59054;SDS011;44845;51.444;7.460;2023-04-30T03:17:48;12.43;;;8.20;;
59054;SDS011;44845;51.444;7.460;2023-04-30T03:20:13;9.90;;;7.78;;
59054;SDS011;44845;51.444;7.460;2023-04-30T03:22:38;10.65;;;7.93;;
59054;SDS011;44845;51.444;7.460;2023-04-30T03:25:04;9.82;;;7.75;;
59054;SDS011;44845;51.444;7.460;2023-04-30T03:27:29;9.77;;;7.47;;
59054;SDS011;44845;51.444;7.460;2023-04-30T03:29:55;9.38;;;7.00;;
59054;SDS011;44845;51.444;7.460;2023-04-30T03:32:20;12.18;;;8.40;;
59054;SDS011;44845;51.444;7.460;2023-04-30T03:34:45;10.43;;;8.23;;
59054;SDS011;44845;51.444;7.460;2023-04-30T03:37:11;10.13;;;8.02;;
59054;SDS011;44845;51.444;7.460;2023-04-30T03:39:36;12.45;;;8.25;;
59054;SDS011;44845;51.444;7.460;2023-04-30T03:42:01;11.43;;;8.70;;
59054;SDS011;44845;51.444;7.460;2023-04-30T03:44:27;11.07;;;7.72;;
59054;SDS011;44845;51.444;7.460;2023-04-30T03:46:52;15.45;;;7.78;;
59054;SDS011;44845;51.444;7.460;2023-04-30T03:49:18;12.85;;;8.38;;
59054;SDS011;44845;51.444;7.460;2023-04-30T03:51:43;11.40;;;8.15;;
59054;SDS011;44845;51.444;7.460;2023-04-30T03:54:09;12.77;;;8.02;;
59054;SDS011;44845;51.444;7.460;2023-04-30T03:56:34;11.70;;;7.93;;
59054;SDS011;44845;51.444;7.460;2023-04-30T03:59:01;10.13;;;7.45;;
59054;SDS011;44845;51.444;7.460;2023-04-30T04:01:27;11.60;;;7.68;;
59054;SDS011;44845;51.444;7.460;2023-04-30T04:03:53;11.13;;;8.18;;
59054;SDS011;44845;51.444;7.460;2023-04-30T04:06:19;11.90;;;7.53;;
59054;SDS011;44845;51.444;7.460;2023-04-30T04:08:44;11.93;;;7.90;;
59054;SDS011;44845;51.444;7.460;2023-04-30T04:11:10;10.68;;;8.13;;
59054;SDS011;44845;51.444;7.460;2023-04-30T04:13:36;12.13;;;7.72;;
59054;SDS011;44845;51.444;7.460;2023-04-30T04:16:01;9.90;;;7.07;;
59054;SDS011;44845;51.444;7.460;2023-04-30T04:18:26;12.13;;;8.30;;
59054;SDS011;44845;51.444;7.460;2023-04-30T04:20:52;13.75;;;7.70;;
59054;SDS011;44845;51.444;7.460;2023-04-30T04:23:18;10.52;;;8.23;;
59054;SDS011;44845;51.444;7.460;2023-04-30T04:25:43;10.60;;;8.00;;
59054;SDS011;44845;51.444;7.460;2023-04-30T04:28:10;9.90;;;7.90;;
59054;SDS011;44845;51.444;7.460;2023-04-30T04:30:36;9.57;;;7.85;;
59054;SDS011;44845;51.444;7.460;2023-04-30T04:33:01;11.90;;;8.07;;
59054;SDS011;44845;51.444;7.460;2023-04-30T04:35:27;11.15;;;8.48;;
59054;SDS011;44845;51.444;7.460;2023-04-30T04:37:52;12.45;;;8.43;;
59054;SDS011;44845;51.444;7.460;2023-04-30T04:40:17;11.55;;;8.40;;
59054;SDS011;44845;51.444;7.460;2023-04-30T04:42:43;11.15;;;8.45;;
59054;SDS011;44845;51.444;7.460;2023-04-30T04:45:08;12.45;;;8.77;;
59054;SDS011;44845;51.444;7.460;2023-04-30T04:47:35;12.60;;;9.38;;
59054;SDS011;44845;51.444;7.460;2023-04-30T04:50:00;13.60;;;8.55;;
59054;SDS011;44845;51.444;7.460;2023-04-30T04:52:26;14.90;;;9.07;;
59054;SDS011;44845;51.444;7.460;2023-04-30T04:54:51;10.57;;;8.68;;
59054;SDS011;44845;51.444;7.460;2023-04-30T04:57:17;12.93;;;9.38;;
59054;SDS011;44845;51.444;7.460;2023-04-30T04:59:42;12.00;;;9.48;;
59054;SDS011;44845;51.444;7.460;2023-04-30T05:02:07;12.25;;;8.95;;
59054;SDS011;44845;51.444;7.460;2023-04-30T05:04:33;12.00;;;9.07;;
59054;SDS011;44845;51.444;7.460;2023-04-30T05:06:58;13.85;;;8.98;;
59054;SDS011;44845;51.444;7.460;2023-04-30T05:09:24;13.10;;;9.00;;
59054;SDS011;44845;51.444;7.460;2023-04-30T05:11:49;14.05;;;9.20;;
59054;SDS011;44845;51.444;7.460;2023-04-30T05:14:15;10.65;;;8.70;;
59054;SDS011;44845;51.444;7.460;2023-04-30T05:16:40;11.80;;;8.55;;
59054;SDS011;44845;51.444;7.460;2023-04-30T05:19:05;11.88;;;8.60;;
59054;SDS011;44845;51.444;7.460;2023-04-30T05:21:33;14.05;;;9.13;;
59054;SDS011;44845;51.444;7.460;2023-04-30T05:23:59;11.75;;;8.68;;
59054;SDS011;44845;51.444;7.460;2023-04-30T05:26:24;13.10;;;9.27;;
59054;SDS011;44845;51.444;7.460;2023-04-30T05:28:50;13.65;;;10.63;;
59054;SDS011;44845;51.444;7.460;2023-04-30T05:31:16;12.95;;;9.48;;
59054;SDS011;44845;51.444;7.460;2023-04-30T05:33:41;16.27;;;9.82;;
59054;SDS011;44845;51.444;7.460;2023-04-30T05:36:07;17.27;;;10.55;;
59054;SDS011;44845;51.444;7.460;2023-04-30T05:38:32;16.63;;;10.07;;
59054;SDS011;44845;51.444;7.460;2023-04-30T05:40:58;13.35;;;9.88;;
59054;SDS011;44845;51.444;7.460;2023-04-30T05:43:24;13.85;;;10.00;;
59054;SDS011;44845;51.444;7.460;2023-04-30T05:45:49;13.63;;;9.70;;
59054;SDS011;44845;51.444;7.460;2023-04-30T05:48:15;13.20;;;10.25;;
59054;SDS011;44845;51.444;7.460;2023-04-30T05:50:40;12.18;;;9.63;;
59054;SDS011;44845;51.444;7.460;2023-04-30T05:53:05;13.60;;;10.15;;
59054;SDS011;44845;51.444;7.460;2023-04-30T05:55:31;13.75;;;10.13;;
59054;SDS011;44845;51.444;7.460;2023-04-30T05:57:56;15.35;;;10.07;;
59054;SDS011;44845;51.444;7.460;2023-04-30T06:00:21;15.60;;;10.40;;
59054;SDS011;44845;51.444;7.460;2023-04-30T06:02:47;15.52;;;10.50;;
59054;SDS011;44845;51.444;7.460;2023-04-30T06:05:12;16.58;;;11.43;;
59054;SDS011;44845;51.444;7.460;2023-04-30T06:07:38;15.70;;;10.38;;
59054;SDS011;44845;51.444;7.460;2023-04-30T06:10:03;16.17;;;10.40;;
59054;SDS011;44845;51.444;7.460;2023-04-30T06:12:29;15.00;;;11.13;;
59054;SDS011;44845;51.444;7.460;2023-04-30T06:14:55;15.52;;;10.23;;
59054;SDS011;44845;51.444;7.460;2023-04-30T06:17:20;13.70;;;10.82;;
59054;SDS011;44845;51.444;7.460;2023-04-30T06:19:45;16.27;;;10.70;;
59054;SDS011;44845;51.444;7.460;2023-04-30T06:22:11;12.07;;;9.43;;
59054;SDS011;44845;51.444;7.460;2023-04-30T06:24:36;14.15;;;10.30;;
59054;SDS011;44845;51.444;7.460;2023-04-30T06:27:02;15.35;;;10.43;;
59054;SDS011;44845;51.444;7.460;2023-04-30T06:29:27;13.98;;;9.88;;
59054;SDS011;44845;51.444;7.460;2023-04-30T06:31:52;12.15;;;9.25;;
59054;SDS011;44845;51.444;7.460;2023-04-30T06:34:18;14.30;;;9.55;;
59054;SDS011;44845;51.444;7.460;2023-04-30T06:36:44;14.07;;;9.35;;
59054;SDS011;44845;51.444;7.460;2023-04-30T06:39:11;16.85;;;10.50;;
59054;SDS011;44845;51.444;7.460;2023-04-30T06:41:38;12.95;;;10.10;;
59054;SDS011;44845;51.444;7.460;2023-04-30T06:44:04;13.95;;;9.90;;
59054;SDS011;44845;51.444;7.460;2023-04-30T06:46:29;15.23;;;10.95;;
59054;SDS011;44845;51.444;7.460;2023-04-30T06:48:55;13.52;;;9.98;;
59054;SDS011;44845;51.444;7.460;2023-04-30T06:51:20;17.25;;;11.15;;
59054;SDS011;44845;51.444;7.460;2023-04-30T06:53:45;15.50;;;10.23;;
59054;SDS011;44845;51.444;7.460;2023-04-30T06:56:11;14.50;;;10.60;;
59054;SDS011;44845;51.444;7.460;2023-04-30T06:58:37;14.32;;;9.82;;
59054;SDS011;44845;51.444;7.460;2023-04-30T07:01:02;16.05;;;10.35;;
59054;SDS011;44845;51.444;7.460;2023-04-30T07:03:27;15.45;;;10.30;;
59054;SDS011;44845;51.444;7.460;2023-04-30T07:05:53;14.73;;;9.90;;
59054;SDS011;44845;51.444;7.460;2023-04-30T07:08:19;16.15;;;9.38;;
59054;SDS011;44845;51.444;7.460;2023-04-30T07:10:45;14.18;;;9.30;;
59054;SDS011;44845;51.444;7.460;2023-04-30T07:13:10;12.48;;;9.52;;
59054;SDS011;44845;51.444;7.460;2023-04-30T07:15:36;14.27;;;9.13;;
59054;SDS011;44845;51.444;7.460;2023-04-30T07:18:02;12.57;;;9.15;;
59054;SDS011;44845;51.444;7.460;2023-04-30T07:20:28;13.20;;;8.85;;
59054;SDS011;44845;51.444;7.460;2023-04-30T07:22:54;16.20;;;9.52;;
59054;SDS011;44845;51.444;7.460;2023-04-30T07:25:19;15.80;;;9.02;;
59054;SDS011;44845;51.444;7.460;2023-04-30T07:27:45;12.27;;;8.82;;
59054;SDS011;44845;51.444;7.460;2023-04-30T07:30:10;15.02;;;10.00;;
59054;SDS011;44845;51.444;7.460;2023-04-30T07:32:36;12.75;;;8.88;;
59054;SDS011;44845;51.444;7.460;2023-04-30T07:35:02;13.45;;;9.32;;
59054;SDS011;44845;51.444;7.460;2023-04-30T07:37:28;13.27;;;9.00;;
59054;SDS011;44845;51.444;7.460;2023-04-30T07:39:53;11.48;;;8.82;;
59054;SDS011;44845;51.444;7.460;2023-04-30T07:42:19;12.25;;;8.65;;
59054;SDS011;44845;51.444;7.460;2023-04-30T07:44:44;11.35;;;8.60;;
59054;SDS011;44845;51.444;7.460;2023-04-30T07:47:10;12.40;;;8.65;;
59054;SDS011;44845;51.444;7.460;2023-04-30T07:49:35;10.98;;;7.93;;
59054;SDS011;44845;51.444;7.460;2023-04-30T07:52:01;10.32;;;7.80;;
59054;SDS011;44845;51.444;7.460;2023-04-30T07:54:26;10.00;;;8.27;;
59054;SDS011;44845;51.444;7.460;2023-04-30T07:56:52;11.55;;;8.80;;
59054;SDS011;44845;51.444;7.460;2023-04-30T07:59:17;10.20;;;8.10;;
59054;SDS011;44845;51.444;7.460;2023-04-30T08:01:43;9.32;;;7.07;;
59054;SDS011;44845;51.444;7.460;2023-04-30T08:04:08;10.05;;;7.15;;
59054;SDS011;44845;51.444;7.460;2023-04-30T08:06:34;10.23;;;6.78;;
59054;SDS011;44845;51.444;7.460;2023-04-30T08:08:59;9.73;;;7.05;;
59054;SDS011;44845;51.444;7.460;2023-04-30T08:11:25;12.38;;;7.10;;
59054;SDS011;44845;51.444;7.460;2023-04-30T08:13:51;7.90;;;6.80;;
59054;SDS011;44845;51.444;7.460;2023-04-30T08:16:16;8.95;;;6.57;;
59054;SDS011;44845;51.444;7.460;2023-04-30T08:18:41;7.78;;;6.03;;
59054;SDS011;44845;51.444;7.460;2023-04-30T08:21:09;11.02;;;7.78;;
59054;SDS011;44845;51.444;7.460;2023-04-30T08:23:37;9.63;;;6.97;;
59054;SDS011;44845;51.444;7.460;2023-04-30T08:26:03;13.25;;;7.18;;
59054;SDS011;44845;51.444;7.460;2023-04-30T08:28:28;9.82;;;7.45;;
59054;SDS011;44845;51.444;7.460;2023-04-30T08:30:53;10.02;;;7.20;;
59054;SDS011;44845;51.444;7.460;2023-04-30T08:33:19;7.90;;;6.30;;
59054;SDS011;44845;51.444;7.460;2023-04-30T08:35:44;8.60;;;6.45;;
59054;SDS011;44845;51.444;7.460;2023-04-30T08:38:10;9.63;;;6.13;;
59054;SDS011;44845;51.444;7.460;2023-04-30T08:40:35;7.97;;;5.70;;
59054;SDS011;44845;51.444;7.460;2023-04-30T08:43:07;8.20;;;5.95;;
59054;SDS011;44845;51.444;7.460;2023-04-30T08:45:34;8.30;;;5.82;;
59054;SDS011;44845;51.444;7.460;2023-04-30T08:48:01;8.00;;;5.82;;
59054;SDS011;44845;51.444;7.460;2023-04-30T08:50:28;9.38;;;5.22;;
59054;SDS011;44845;51.444;7.460;2023-04-30T08:52:54;7.70;;;6.10;;
59054;SDS011;44845;51.444;7.460;2023-04-30T08:55:20;8.23;;;5.88;;
59054;SDS011;44845;51.444;7.460;2023-04-30T08:57:45;7.70;;;5.13;;
59054;SDS011;44845;51.444;7.460;2023-04-30T09:00:11;7.03;;;5.28;;
59054;SDS011;44845;51.444;7.460;2023-04-30T09:02:38;13.02;;;6.32;;
59054;SDS011;44845;51.444;7.460;2023-04-30T09:05:09;6.60;;;5.70;;
59054;SDS011;44845;51.444;7.460;2023-04-30T09:07:36;9.88;;;6.10;;
59054;SDS011;44845;51.444;7.460;2023-04-30T09:10:08;8.77;;;5.68;;
59054;SDS011;44845;51.444;7.460;2023-04-30T09:12:40;8.10;;;5.53;;
59054;SDS011;44845;51.444;7.460;2023-04-30T09:15:08;8.65;;;5.13;;
59054;SDS011;44845;51.444;7.460;2023-04-30T09:17:34;6.32;;;5.32;;
59054;SDS011;44845;51.444;7.460;2023-04-30T09:22:34;9.52;;;4.75;;
59054;SDS011;44845;51.444;7.460;2023-04-30T09:25:00;7.50;;;4.88;;
59054;SDS011;44845;51.444;7.460;2023-04-30T09:27:26;6.47;;;5.60;;
59054;SDS011;44845;51.444;7.460;2023-04-30T09:29:51;7.53;;;5.57;;
59054;SDS011;44845;51.444;7.460;2023-04-30T09:32:17;6.28;;;4.40;;
59054;SDS011;44845;51.444;7.460;2023-04-30T09:34:43;6.00;;;3.92;;
59054;SDS011;44845;51.444;7.460;2023-04-30T09:37:08;4.72;;;3.58;;
59054;SDS011;44845;51.444;7.460;2023-04-30T09:39:45;5.53;;;3.75;;
59054;SDS011;44845;51.444;7.460;2023-04-30T09:42:12;5.75;;;3.85;;
59054;SDS011;44845;51.444;7.460;2023-04-30T09:44:40;8.73;;;4.55;;
59054;SDS011;44845;51.444;7.460;2023-04-30T09:47:12;4.38;;;3.38;;
59054;SDS011;44845;51.444;7.460;2023-04-30T09:49:42;6.00;;;3.65;;
59054;SDS011;44845;51.444;7.460;2023-04-30T09:52:11;7.00;;;5.15;;
59054;SDS011;44845;51.444;7.460;2023-04-30T09:54:39;9.50;;;5.43;;
59054;SDS011;44845;51.444;7.460;2023-04-30T09:57:05;4.53;;;3.80;;
59054;SDS011;44845;51.444;7.460;2023-04-30T09:59:35;4.93;;;3.35;;
59054;SDS011;44845;51.444;7.460;2023-04-30T10:02:03;4.50;;;3.92;;
59054;SDS011;44845;51.444;7.460;2023-04-30T10:04:36;4.32;;;3.08;;
59054;SDS011;44845;51.444;7.460;2023-04-30T10:07:05;4.43;;;3.33;;
59054;SDS011;44845;51.444;7.460;2023-04-30T10:09:34;5.70;;;4.53;;
59054;SDS011;44845;51.444;7.460;2023-04-30T10:12:07;5.75;;;4.13;;
59054;SDS011;44845;51.444;7.460;2023-04-30T10:14:47;3.25;;;2.95;;
59054;SDS011;44845;51.444;7.460;2023-04-30T10:17:16;4.45;;;3.00;;
59054;SDS011;44845;51.444;7.460;2023-04-30T10:19:44;2.80;;;2.25;;
59054;SDS011;44845;51.444;7.460;2023-04-30T10:22:12;4.82;;;2.75;;
59054;SDS011;44845;51.444;7.460;2023-04-30T10:24:38;3.70;;;1.98;;
59054;SDS011;44845;51.444;7.460;2023-04-30T10:27:04;3.35;;;2.50;;
59054;SDS011;44845;51.444;7.460;2023-04-30T10:29:29;5.45;;;3.15;;
59054;SDS011;44845;51.444;7.460;2023-04-30T10:31:54;3.33;;;3.03;;
59054;SDS011;44845;51.444;7.460;2023-04-30T10:34:27;3.92;;;3.20;;
59054;SDS011;44845;51.444;7.460;2023-04-30T10:36:59;4.15;;;3.65;;
59054;SDS011;44845;51.444;7.460;2023-04-30T10:39:31;4.55;;;3.40;;
59054;SDS011;44845;51.444;7.460;2023-04-30T10:42:00;3.47;;;3.17;;
59054;SDS011;44845;51.444;7.460;2023-04-30T10:44:32;5.95;;;3.42;;
59054;SDS011;44845;51.444;7.460;2023-04-30T10:47:01;3.88;;;3.28;;
59054;SDS011;44845;51.444;7.460;2023-04-30T10:49:28;4.03;;;3.50;;
59054;SDS011;44845;51.444;7.460;2023-04-30T10:51:56;6.82;;;3.80;;
59054;SDS011;44845;51.444;7.460;2023-04-30T10:54:25;4.65;;;3.53;;
59054;SDS011;44845;51.444;7.460;2023-04-30T10:56:52;5.15;;;3.67;;
59054;SDS011;44845;51.444;7.460;2023-04-30T10:59:20;4.47;;;3.50;;
59054;SDS011;44845;51.444;7.460;2023-04-30T11:01:56;3.97;;;2.90;;
59054;SDS011;44845;51.444;7.460;2023-04-30T11:04:23;6.25;;;2.90;;
59054;SDS011;44845;51.444;7.460;2023-04-30T11:09:23;5.75;;;4.35;;
59054;SDS011;44845;51.444;7.460;2023-04-30T11:12:03;6.22;;;3.15;;
59054;SDS011;44845;51.444;7.460;2023-04-30T11:14:33;4.32;;;3.10;;
59054;SDS011;44845;51.444;7.460;2023-04-30T11:16:59;4.35;;;3.53;;
59054;SDS011;44845;51.444;7.460;2023-04-30T11:19:26;6.82;;;3.45;;
59054;SDS011;44845;51.444;7.460;2023-04-30T11:25:32;5.82;;;4.53;;
59054;SDS011;44845;51.444;7.460;2023-04-30T11:27:24;7.57;;;4.20;;
59054;SDS011;44845;51.444;7.460;2023-04-30T11:29:51;3.70;;;3.30;;
59054;SDS011;44845;51.444;7.460;2023-04-30T11:32:17;4.35;;;3.42;;
59054;SDS011;44845;51.444;7.460;2023-04-30T11:34:47;4.60;;;3.40;;
59054;SDS011;44845;51.444;7.460;2023-04-30T11:37:14;5.28;;;3.45;;
59054;SDS011;44845;51.444;7.460;2023-04-30T11:39:43;4.80;;;3.58;;
59054;SDS011;44845;51.444;7.460;2023-04-30T11:42:14;4.90;;;3.45;;
59054;SDS011;44845;51.444;7.460;2023-04-30T11:44:40;4.82;;;3.22;;
59054;SDS011;44845;51.444;7.460;2023-04-30T11:47:06;3.95;;;3.10;;
59054;SDS011;44845;51.444;7.460;2023-04-30T11:49:31;4.40;;;3.75;;
59054;SDS011;44845;51.444;7.460;2023-04-30T11:51:57;3.33;;;2.97;;
59054;SDS011;44845;51.444;7.460;2023-04-30T11:54:22;3.50;;;3.15;;
59054;SDS011;44845;51.444;7.460;2023-04-30T11:56:48;5.10;;;2.92;;
59054;SDS011;44845;51.444;7.460;2023-04-30T11:59:14;5.57;;;4.28;;
59054;SDS011;44845;51.444;7.460;2023-04-30T12:01:40;5.85;;;3.58;;
59054;SDS011;44845;51.444;7.460;2023-04-30T12:04:06;3.88;;;3.33;;
59054;SDS011;44845;51.444;7.460;2023-04-30T12:06:33;5.55;;;2.75;;
59054;SDS011;44845;51.444;7.460;2023-04-30T12:09:00;4.03;;;2.22;;
59054;SDS011;44845;51.444;7.460;2023-04-30T12:11:32;4.90;;;2.15;;
59054;SDS011;44845;51.444;7.460;2023-04-30T12:14:01;5.00;;;3.13;;
59054;SDS011;44845;51.444;7.460;2023-04-30T12:16:44;5.23;;;3.83;;
59054;SDS011;44845;51.444;7.460;2023-04-30T12:19:13;3.53;;;1.55;;
59054;SDS011;44845;51.444;7.460;2023-04-30T12:21:40;4.95;;;1.90;;
59054;SDS011;44845;51.444;7.460;2023-04-30T12:24:09;3.88;;;1.60;;
59054;SDS011;44845;51.444;7.460;2023-04-30T12:26:39;1.80;;;1.65;;
59054;SDS011;44845;51.444;7.460;2023-04-30T12:31:35;3.60;;;1.45;;
59054;SDS011;44845;51.444;7.460;2023-04-30T12:34:05;1.27;;;1.17;;
59054;SDS011;44845;51.444;7.460;2023-04-30T12:36:32;2.45;;;1.58;;
59054;SDS011;44845;51.444;7.460;2023-04-30T12:41:29;1.98;;;1.55;;
59054;SDS011;44845;51.444;7.460;2023-04-30T12:46:45;2.83;;;1.23;;
59054;SDS011;44845;51.444;7.460;2023-04-30T12:49:20;3.55;;;2.40;;
59054;SDS011;44845;51.444;7.460;2023-04-30T12:51:47;2.60;;;2.30;;
59054;SDS011;44845;51.444;7.460;2023-04-30T12:54:13;4.47;;;2.45;;
59054;SDS011;44845;51.444;7.460;2023-04-30T12:56:38;2.33;;;2.13;;
59054;SDS011;44845;51.444;7.460;2023-04-30T12:59:13;3.40;;;2.00;;
59054;SDS011;44845;51.444;7.460;2023-04-30T13:01:43;4.68;;;2.00;;
59054;SDS011;44845;51.444;7.460;2023-04-30T13:04:09;3.90;;;2.33;;
59054;SDS011;44845;51.444;7.460;2023-04-30T13:06:35;4.78;;;2.65;;
59054;SDS011;44845;51.444;7.460;2023-04-30T13:09:00;6.32;;;2.80;;
59054;SDS011;44845;51.444;7.460;2023-04-30T13:11:25;2.25;;;2.00;;
59054;SDS011;44845;51.444;7.460;2023-04-30T13:13:51;2.08;;;1.10;;
59054;SDS011;44845;51.444;7.460;2023-04-30T13:16:18;4.28;;;1.50;;
59054;SDS011;44845;51.444;7.460;2023-04-30T13:18:43;2.00;;;1.33;;
59054;SDS011;44845;51.444;7.460;2023-04-30T13:21:09;2.97;;;1.48;;
59054;SDS011;44845;51.444;7.460;2023-04-30T13:23:35;3.58;;;1.70;;
59054;SDS011;44845;51.444;7.460;2023-04-30T13:26:00;2.17;;;1.10;;
59054;SDS011;44845;51.444;7.460;2023-04-30T13:28:26;1.80;;;1.23;;
59054;SDS011;44845;51.444;7.460;2023-04-30T13:30:51;4.18;;;1.20;;
59054;SDS011;44845;51.444;7.460;2023-04-30T13:33:16;3.42;;;1.65;;
59054;SDS011;44845;51.444;7.460;2023-04-30T13:35:42;3.58;;;2.28;;
59054;SDS011;44845;51.444;7.460;2023-04-30T13:38:07;3.65;;;2.17;;
59054;SDS011;44845;51.444;7.460;2023-04-30T13:40:34;2.47;;;2.10;;
59054;SDS011;44845;51.444;7.460;2023-04-30T13:42:59;2.95;;;2.10;;
59054;SDS011;44845;51.444;7.460;2023-04-30T13:45:25;1.85;;;1.45;;
59054;SDS011;44845;51.444;7.460;2023-04-30T13:47:50;2.05;;;1.48;;
59054;SDS011;44845;51.444;7.460;2023-04-30T13:50:15;1.33;;;0.80;;
59054;SDS011;44845;51.444;7.460;2023-04-30T13:52:41;1.48;;;0.70;;
59054;SDS011;44845;51.444;7.460;2023-04-30T13:55:06;2.13;;;0.88;;
59054;SDS011;44845;51.444;7.460;2023-04-30T13:57:32;1.60;;;0.90;;
59054;SDS011;44845;51.444;7.460;2023-04-30T13:59:58;2.20;;;1.17;;
59054;SDS011;44845;51.444;7.460;2023-04-30T14:02:24;2.03;;;0.80;;
59054;SDS011;44845;51.444;7.460;2023-04-30T14:04:51;3.88;;;0.80;;
59054;SDS011;44845;51.444;7.460;2023-04-30T14:07:16;2.58;;;1.00;;
59054;SDS011;44845;51.444;7.460;2023-04-30T14:09:42;1.88;;;1.55;;
59054;SDS011;44845;51.444;7.460;2023-04-30T14:12:07;2.35;;;1.10;;
59054;SDS011;44845;51.444;7.460;2023-04-30T14:14:33;3.33;;;1.13;;
59054;SDS011;44845;51.444;7.460;2023-04-30T14:16:59;2.17;;;0.90;;
59054;SDS011;44845;51.444;7.460;2023-04-30T14:19:25;1.73;;;0.88;;
59054;SDS011;44845;51.444;7.460;2023-04-30T14:21:51;2.80;;;0.70;;
59054;SDS011;44845;51.444;7.460;2023-04-30T14:24:16;1.50;;;0.80;;
59054;SDS011;44845;51.444;7.460;2023-04-30T14:26:42;2.00;;;0.60;;
59054;SDS011;44845;51.444;7.460;2023-04-30T14:29:07;1.45;;;0.57;;
59054;SDS011;44845;51.444;7.460;2023-04-30T14:31:33;5.07;;;1.13;;
59054;SDS011;44845;51.444;7.460;2023-04-30T14:33:58;3.40;;;1.20;;
59054;SDS011;44845;51.444;7.460;2023-04-30T14:36:26;0.65;;;0.60;;
59054;SDS011;44845;51.444;7.460;2023-04-30T14:38:52;2.47;;;0.50;;
59054;SDS011;44845;51.444;7.460;2023-04-30T14:41:18;0.75;;;0.65;;
59054;SDS011;44845;51.444;7.460;2023-04-30T14:43:43;2.03;;;0.73;;
59054;SDS011;44845;51.444;7.460;2023-04-30T14:46:08;2.85;;;0.82;;
59054;SDS011;44845;51.444;7.460;2023-04-30T14:48:34;2.20;;;0.75;;
59054;SDS011;44845;51.444;7.460;2023-04-30T14:50:59;1.52;;;0.50;;
59054;SDS011;44845;51.444;7.460;2023-04-30T14:53:25;1.25;;;0.60;;
59054;SDS011;44845;51.444;7.460;2023-04-30T14:55:50;2.20;;;0.52;;
59054;SDS011;44845;51.444;7.460;2023-04-30T14:58:16;1.63;;;0.65;;
59054;SDS011;44845;51.444;7.460;2023-04-30T15:00:41;1.77;;;1.00;;
59054;SDS011;44845;51.444;7.460;2023-04-30T15:03:06;2.00;;;0.85;;
59054;SDS011;44845;51.444;7.460;2023-04-30T15:05:32;3.20;;;1.10;;
59054;SDS011;44845;51.444;7.460;2023-04-30T15:07:57;2.03;;;0.93;;